Time;durP1;ratioP1;P1;durP2;ratioP2;P2;SDS_P1;SDS_P2;PMS_P1;PMS_P2;Temp;Humidity;BMP_temperature;BMP_pressure;BME280_temperature;BME280_humidity;BME280_pressure;Samples;Min_cycle;Max_cycle;Signal;HPM_P1;HPM_P2
2022/01/07 00:00:18;;;;;;;19.83;5.03;;;24.20;99.90;;;;;;5073920;28;20029;-74
2022/01/07 00:02:47;;;;;;;17.00;4.55;;;24.10;99.90;;;;;;5074581;28;20032;-74
2022/01/07 00:05:14;;;;;;;15.18;3.92;;;24.10;99.90;;;;;;5075324;28;20532;-75
2022/01/07 00:07:42;;;;;;;20.38;4.38;;;24.20;99.90;;;;;;5075403;28;20451;-74
2022/01/07 00:10:20;;;;;;;21.45;5.40;;;24.30;99.90;;;;;;5073629;28;20024;-74
2022/01/07 00:12:50;;;;;;;27.30;6.32;;;24.30;99.90;;;;;;5073483;28;20032;-75
2022/01/07 00:15:17;;;;;;;24.45;5.38;;;24.20;99.90;;;;;;5074312;28;20035;-75
2022/01/07 00:17:46;;;;;;;30.08;5.85;;;24.20;99.90;;;;;;5073956;28;20569;-74
2022/01/07 00:20:14;;;;;;;29.25;5.97;;;24.30;99.90;;;;;;5074857;28;20036;-75
2022/01/07 00:22:43;;;;;;;33.80;6.35;;;24.30;99.90;;;;;;5074884;28;20020;-74
2022/01/07 00:25:12;;;;;;;30.30;8.35;;;24.40;99.90;;;;;;5074688;28;20472;-72
2022/01/07 00:27:40;;;;;;;31.92;6.22;;;24.50;99.90;;;;;;5074647;28;20028;-75
2022/01/07 00:30:10;;;;;;;28.73;5.78;;;24.50;99.90;;;;;;5074475;28;20164;-75
2022/01/07 00:32:40;;;;;;;26.52;5.93;;;24.60;99.90;;;;;;5074419;28;20032;-74
2022/01/07 00:35:09;;;;;;;29.92;5.63;;;24.60;99.90;;;;;;5073448;28;20107;-73
2022/01/07 00:37:37;;;;;;;29.90;5.80;;;24.60;99.90;;;;;;5074248;28;20148;-72
2022/01/07 00:40:07;;;;;;;28.75;6.88;;;24.60;99.90;;;;;;5072939;28;20365;-75
2022/01/07 00:42:34;;;;;;;30.25;5.72;;;24.60;99.90;;;;;;5074151;28;20020;-74
2022/01/07 00:45:03;;;;;;;30.10;7.20;;;24.70;99.90;;;;;;5073953;28;20016;-76
2022/01/07 00:47:30;;;;;;;31.00;6.18;;;24.60;99.90;;;;;;5074361;28;20027;-75
2022/01/07 00:50:00;;;;;;;36.75;8.70;;;24.60;99.90;;;;;;5074594;28;20027;-73
2022/01/07 00:52:27;;;;;;;35.15;5.78;;;24.60;99.90;;;;;;5074574;28;20033;-74
2022/01/07 00:54:55;;;;;;;34.50;6.82;;;24.60;99.90;;;;;;5074429;28;20028;-72
2022/01/07 00:57:23;;;;;;;32.97;5.93;;;24.60;99.90;;;;;;5073964;28;20032;-73
2022/01/07 00:59:50;;;;;;;31.27;5.78;;;24.60;99.90;;;;;;5072866;28;20017;-75
2022/01/07 01:02:18;;;;;;;37.60;6.10;;;24.60;99.90;;;;;;5074382;28;20519;-76
2022/01/07 01:04:46;;;;;;;32.40;6.22;;;24.60;99.90;;;;;;5074736;28;20020;-75
2022/01/07 01:07:15;;;;;;;30.27;7.82;;;24.60;99.90;;;;;;5073745;28;20020;-75
2022/01/07 01:09:43;;;;;;;35.50;7.32;;;24.60;99.90;;;;;;5073216;28;20013;-73
2022/01/07 01:12:12;;;;;;;30.10;5.38;;;24.60;99.90;;;;;;5073247;28;20423;-76
2022/01/07 01:14:40;;;;;;;35.95;5.93;;;24.60;99.90;;;;;;5074012;28;20338;-75
2022/01/07 01:17:08;;;;;;;34.13;6.50;;;24.60;99.90;;;;;;5073776;28;20029;-76
2022/01/07 01:19:36;;;;;;;32.03;6.50;;;24.70;99.90;;;;;;5073968;28;20027;-74
2022/01/07 01:22:04;;;;;;;31.10;5.90;;;24.80;99.90;;;;;;5073527;28;20028;-75
2022/01/07 01:24:32;;;;;;;34.22;7.93;;;24.90;99.90;;;;;;5073225;28;20020;-73
2022/01/07 01:27:00;;;;;;;31.23;7.55;;;25.00;99.90;;;;;;5073166;28;20074;-74
2022/01/07 01:29:27;;;;;;;31.55;5.63;;;25.10;99.90;;;;;;5073110;28;20021;-73
2022/01/07 01:31:54;;;;;;;28.73;7.10;;;25.20;99.90;;;;;;5071931;28;20048;-73
2022/01/07 01:34:22;;;;;;;33.40;6.03;;;25.40;99.90;;;;;;5073043;28;20433;-73
2022/01/07 01:36:49;;;;;;;25.73;5.55;;;25.40;99.90;;;;;;5072787;28;20070;-76
2022/01/07 01:39:16;;;;;;;27.50;6.88;;;25.40;99.90;;;;;;5072813;28;20025;-73
2022/01/07 01:41:44;;;;;;;31.98;6.40;;;25.50;99.90;;;;;;5071928;28;20413;-75
2022/01/07 01:44:12;;;;;;;25.67;5.30;;;25.50;99.90;;;;;;5073123;28;20044;-75
2022/01/07 01:46:39;;;;;;;29.38;7.35;;;25.60;99.90;;;;;;5073011;28;20099;-75
2022/01/07 01:49:07;;;;;;;29.65;7.25;;;25.70;99.90;;;;;;5072789;28;20094;-77
2022/01/07 01:51:35;;;;;;;27.73;5.95;;;25.70;99.90;;;;;;5072350;28;20048;-77
2022/01/07 01:54:04;;;;;;;24.75;5.25;;;25.80;99.90;;;;;;5072866;28;20031;-76
2022/01/07 01:56:32;;;;;;;41.35;6.88;;;25.80;99.90;;;;;;5072591;28;20024;-76
2022/01/07 01:59:00;;;;;;;21.05;5.07;;;25.90;99.90;;;;;;5072436;28;20108;-75
2022/01/07 02:01:27;;;;;;;22.10;6.00;;;25.90;99.90;;;;;;5071331;28;20021;-75
2022/01/07 02:03:55;;;;;;;30.42;6.53;;;25.90;99.90;;;;;;5072485;28;20099;-77
2022/01/07 02:06:23;;;;;;;25.67;5.82;;;26.00;99.90;;;;;;5072775;28;20024;-77
2022/01/07 02:08:51;;;;;;;28.40;5.50;;;26.20;99.90;;;;;;5072634;28;20029;-77
2022/01/07 02:11:19;;;;;;;28.17;5.68;;;26.30;99.90;;;;;;5072368;28;20508;-74
2022/01/07 02:13:48;;;;;;;28.63;5.88;;;26.60;99.90;;;;;;5072363;28;20455;-78
2022/01/07 02:16:16;;;;;;;26.27;5.13;;;26.50;99.90;;;;;;5070747;28;20059;-76
2022/01/07 02:18:44;;;;;;;29.13;5.60;;;26.50;99.90;;;;;;5072126;28;20024;-78
2022/01/07 02:21:13;;;;;;;33.50;6.63;;;26.40;99.90;;;;;;5072139;28;20435;-77
2022/01/07 02:23:41;;;;;;;30.05;6.40;;;26.40;99.90;;;;;;5072341;28;20061;-74
2022/01/07 02:26:10;;;;;;;23.73;5.85;;;26.30;99.90;;;;;;5072380;28;20043;-74
2022/01/07 02:28:38;;;;;;;24.55;5.75;;;26.30;99.90;;;;;;5071067;28;20475;-75
2022/01/07 02:31:05;;;;;;;30.55;7.35;;;26.20;99.90;;;;;;5072009;28;20048;-74
2022/01/07 02:33:32;;;;;;;31.92;6.40;;;26.10;99.90;;;;;;5071714;28;20024;-78
2022/01/07 02:36:07;;;;;;;33.42;5.82;;;26.00;99.90;;;;;;5072044;28;20024;-76
2022/01/07 02:38:36;;;;;;;27.00;5.72;;;25.90;99.90;;;;;;5071678;28;20040;-76
2022/01/07 02:41:04;;;;;;;27.25;6.57;;;25.90;99.90;;;;;;5071835;28;20024;-77
2022/01/07 02:43:32;;;;;;;25.45;5.68;;;25.90;99.90;;;;;;5071847;28;20487;-77
2022/01/07 02:45:59;;;;;;;24.88;5.32;;;25.90;99.90;;;;;;5071989;28;20081;-78
2022/01/07 02:48:26;;;;;;;23.85;4.88;;;25.90;99.90;;;;;;5072100;28;20021;-77
2022/01/07 02:50:54;;;;;;;36.10;6.72;;;26.00;99.90;;;;;;5072001;28;20024;-78
2022/01/07 02:53:21;;;;;;;29.15;6.30;;;26.10;99.90;;;;;;5072130;28;20119;-76
2022/01/07 02:55:50;;;;;;;24.90;5.22;;;26.20;99.90;;;;;;5072028;28;20388;-76
2022/01/07 02:58:18;;;;;;;21.38;5.78;;;26.30;99.90;;;;;;5071841;28;20028;-75
2022/01/07 03:00:45;;;;;;;30.05;5.53;;;26.30;99.90;;;;;;5070340;28;20021;-77
2022/01/07 03:03:13;;;;;;;27.70;5.60;;;26.30;99.90;;;;;;5071726;28;20027;-76
2022/01/07 03:05:42;;;;;;;24.20;5.18;;;26.20;99.90;;;;;;5071917;28;20368;-76
2022/01/07 03:08:11;;;;;;;27.90;6.03;;;26.20;99.90;;;;;;5071645;28;20112;-75
2022/01/07 03:10:38;;;;;;;27.17;6.03;;;26.30;99.90;;;;;;5071891;28;20024;-76
2022/01/07 03:13:06;;;;;;;32.83;7.20;;;26.30;99.90;;;;;;5071734;28;20039;-76
2022/01/07 03:15:37;;;;;;;29.02;5.68;;;26.30;99.90;;;;;;5071715;28;20029;-76
2022/01/07 03:18:06;;;;;;;29.80;6.00;;;26.30;99.90;;;;;;5071665;28;20412;-76
2022/01/07 03:20:38;;;;;;;29.42;6.55;;;26.50;99.90;;;;;;5071595;28;20029;-76
2022/01/07 03:23:08;;;;;;;28.05;6.57;;;26.60;99.90;;;;;;5071574;28;20024;-77
2022/01/07 03:25:35;;;;;;;24.73;4.90;;;26.60;99.90;;;;;;5071681;28;20078;-76
2022/01/07 03:28:02;;;;;;;31.75;7.22;;;26.80;99.90;;;;;;5071566;28;20025;-78
2022/01/07 03:30:30;;;;;;;30.70;5.82;;;27.00;99.90;;;;;;5071459;28;20050;-77
2022/01/07 03:32:58;;;;;;;29.33;5.55;;;27.30;99.90;;;;;;5071482;28;20062;-77
2022/01/07 03:35:26;;;;;;;20.88;4.90;;;27.80;99.90;;;;;;5071550;28;20105;-78
2022/01/07 03:37:53;;;;;;;28.85;5.65;;;28.40;99.90;;;;;;5071393;28;20029;-73
2022/01/07 03:40:22;;;;;;;17.08;4.25;;;28.60;99.90;;;;;;5071668;28;20016;-74
2022/01/07 03:42:50;;;;;;;23.38;6.18;;;29.00;99.90;;;;;;5071622;28;20416;-76
2022/01/07 03:45:19;;;;;;;24.35;5.57;;;29.10;99.90;;;;;;5071450;28;20017;-74
2022/01/07 03:47:48;;;;;;;35.30;6.45;;;28.70;99.90;;;;;;5071385;28;20127;-75
2022/01/07 03:50:17;;;;;;;27.98;5.13;;;28.60;99.90;;;;;;5071199;28;20055;-75
2022/01/07 03:52:45;;;;;;;29.00;5.63;;;28.50;99.90;;;;;;5074639;28;20461;-74
2022/01/07 03:55:15;;;;;;;19.67;4.97;;;28.60;99.90;;;;;;5075173;28;20028;-74
2022/01/07 03:57:43;;;;;;;22.80;6.32;;;28.70;99.90;;;;;;5075446;28;20025;-73
2022/01/07 04:00:22;;;;;;;28.75;5.88;;;29.00;99.90;;;;;;5073693;28;20021;-73
2022/01/07 04:02:50;;;;;;;28.95;7.00;;;28.90;99.90;;;;;;5073642;28;20135;-74
2022/01/07 04:05:21;;;;;;;26.73;6.25;;;28.70;99.90;;;;;;5075017;28;20009;-73
2022/01/07 04:07:49;;;;;;;27.63;5.18;;;28.70;99.90;;;;;;5075084;28;20028;-74
2022/01/07 04:10:17;;;;;;;20.02;4.95;;;28.80;99.90;;;;;;5073741;28;20424;-73
2022/01/07 04:12:44;;;;;;;29.10;6.00;;;28.60;99.90;;;;;;5074939;28;20480;-74
2022/01/07 04:15:11;;;;;;;21.13;5.00;;;28.30;99.90;;;;;;5074880;28;20025;-75
2022/01/07 04:17:42;;;;;;;32.88;6.63;;;28.00;99.90;;;;;;5074781;28;20027;-74
2022/01/07 04:20:12;;;;;;;22.75;5.25;;;27.70;99.90;;;;;;5074746;28;20104;-75
2022/01/07 04:22:39;;;;;;;23.40;4.90;;;27.70;99.90;;;;;;5074679;28;20027;-74
2022/01/07 04:25:12;;;;;;;24.55;6.05;;;27.70;99.90;;;;;;5074529;28;20027;-73
2022/01/07 04:27:40;;;;;;;27.50;5.18;;;27.80;99.90;;;;;;5074381;28;20522;-72
2022/01/07 04:30:08;;;;;;;27.27;5.28;;;27.60;99.90;;;;;;5074150;28;20016;-73
2022/01/07 04:32:37;;;;;;;31.00;5.45;;;27.60;99.90;;;;;;5073763;28;20037;-75
2022/01/07 04:35:06;;;;;;;23.83;6.10;;;27.50;99.90;;;;;;5073256;28;20074;-75
2022/01/07 04:37:33;;;;;;;29.17;6.75;;;27.30;99.90;;;;;;5074678;28;20085;-73
2022/01/07 04:40:01;;;;;;;26.80;6.35;;;27.20;99.90;;;;;;5074098;28;20165;-74
2022/01/07 04:42:28;;;;;;;38.90;7.32;;;27.00;99.90;;;;;;5074181;28;20017;-75
2022/01/07 04:44:55;;;;;;;28.60;6.97;;;26.90;99.90;;;;;;5074071;28;20032;-76
2022/01/07 04:47:23;;;;;;;25.98;5.80;;;26.90;99.90;;;;;;5074169;28;20093;-75
2022/01/07 04:49:50;;;;;;;32.00;7.25;;;26.90;99.90;;;;;;5074158;28;20017;-75
2022/01/07 04:52:20;;;;;;;26.48;5.57;;;27.10;99.90;;;;;;5074146;28;20063;-75
2022/01/07 04:54:48;;;;;;;39.25;7.30;;;27.20;99.90;;;;;;5074187;28;20031;-76
2022/01/07 04:57:15;;;;;;;27.35;6.90;;;27.10;99.90;;;;;;5073820;28;20104;-75
2022/01/07 04:59:43;;;;;;;31.83;6.53;;;26.90;99.90;;;;;;5073725;28;20031;-75
2022/01/07 05:02:10;;;;;;;30.38;6.72;;;26.90;99.90;;;;;;5073276;28;20473;-75
2022/01/07 05:04:37;;;;;;;25.00;6.85;;;26.80;99.90;;;;;;5073805;28;20024;-74
2022/01/07 05:07:05;;;;;;;28.13;5.70;;;26.60;99.90;;;;;;5073598;28;20099;-74
2022/01/07 05:09:34;;;;;;;26.83;6.72;;;26.60;99.90;;;;;;5072189;28;20362;-75
2022/01/07 05:12:01;;;;;;;32.70;7.55;;;26.60;99.90;;;;;;5073237;28;20097;-74
2022/01/07 05:14:28;;;;;;;30.70;6.70;;;26.60;99.90;;;;;;5072031;28;20024;-75
2022/01/07 05:16:56;;;;;;;34.53;7.88;;;26.60;99.90;;;;;;5073320;28;20029;-74
2022/01/07 05:19:23;;;;;;;32.47;6.72;;;26.50;99.90;;;;;;5073269;28;20056;-75
2022/01/07 05:21:51;;;;;;;31.40;6.95;;;26.40;99.90;;;;;;5073374;28;20066;-74
2022/01/07 05:24:21;;;;;;;36.42;7.50;;;26.40;99.90;;;;;;5073304;28;20012;-74
2022/01/07 05:26:48;;;;;;;31.65;6.22;;;26.30;99.90;;;;;;5073086;28;20056;-74
2022/01/07 05:29:16;;;;;;;24.20;6.20;;;26.30;99.90;;;;;;5071663;28;20095;-75
2022/01/07 05:31:43;;;;;;;33.38;7.15;;;26.40;99.90;;;;;;5071415;28;20044;-75
2022/01/07 05:34:11;;;;;;;32.40;7.13;;;26.50;99.90;;;;;;5071647;28;20029;-74
2022/01/07 05:36:38;;;;;;;30.30;6.45;;;26.50;99.90;;;;;;5070874;28;20469;-76
2022/01/07 05:39:06;;;;;;;32.78;6.63;;;26.50;99.90;;;;;;5070985;28;20033;-75
2022/01/07 05:41:33;;;;;;;36.70;7.38;;;26.50;99.90;;;;;;5073010;28;20023;-76
2022/01/07 05:44:01;;;;;;;32.33;6.75;;;26.50;99.90;;;;;;5073061;28;20024;-75
2022/01/07 05:46:28;;;;;;;37.80;6.47;;;26.50;99.90;;;;;;5072884;28;20024;-75
2022/01/07 05:48:55;;;;;;;30.77;5.90;;;26.30;99.90;;;;;;5073014;28;20080;-75
2022/01/07 05:51:23;;;;;;;42.85;6.75;;;26.30;99.90;;;;;;5073010;28;20020;-75
2022/01/07 05:53:50;;;;;;;32.25;6.45;;;26.20;99.90;;;;;;5072906;28;20385;-75
2022/01/07 05:56:17;;;;;;;29.10;6.65;;;26.20;99.90;;;;;;5072635;28;20528;-75
2022/01/07 05:58:45;;;;;;;36.60;7.55;;;26.20;99.90;;;;;;5072695;28;20401;-76
2022/01/07 06:01:12;;;;;;;24.90;6.00;;;26.00;99.90;;;;;;5072766;28;20020;-74
2022/01/07 06:03:40;;;;;;;28.33;6.75;;;26.00;99.90;;;;;;5072380;28;20023;-76
2022/01/07 06:06:08;;;;;;;25.83;5.40;;;26.00;99.90;;;;;;5072406;28;20048;-75
2022/01/07 06:08:36;;;;;;;33.10;7.10;;;25.90;99.90;;;;;;5072489;28;20024;-74
2022/01/07 06:11:03;;;;;;;31.42;7.07;;;25.80;99.90;;;;;;5071151;28;20028;-75
2022/01/07 06:13:31;;;;;;;40.63;8.07;;;25.80;99.90;;;;;;5071738;28;20039;-76
2022/01/07 06:15:58;;;;;;;42.53;9.05;;;25.80;99.90;;;;;;5072278;28;20009;-75
2022/01/07 06:18:26;;;;;;;34.92;7.22;;;25.80;99.90;;;;;;5072384;28;20060;-77
2022/01/07 06:20:53;;;;;;;32.70;6.57;;;25.70;99.90;;;;;;5072508;28;20044;-76
2022/01/07 06:23:21;;;;;;;23.33;5.85;;;25.70;99.90;;;;;;5071147;28;20052;-74
2022/01/07 06:25:49;;;;;;;32.67;7.55;;;25.80;99.90;;;;;;5072488;28;20024;-74
2022/01/07 06:28:20;;;;;;;34.20;7.82;;;25.70;99.90;;;;;;5072263;28;20024;-76
2022/01/07 06:30:47;;;;;;;36.88;8.77;;;25.80;99.90;;;;;;5070488;28;20037;-75
2022/01/07 06:33:17;;;;;;;33.00;6.22;;;25.90;99.90;;;;;;5071819;28;20060;-76
2022/01/07 06:35:44;;;;;;;38.85;7.25;;;25.80;99.90;;;;;;5070985;28;20032;-75
2022/01/07 06:38:12;;;;;;;43.90;8.07;;;25.80;99.90;;;;;;5072051;28;20578;-75
2022/01/07 06:40:39;;;;;;;42.30;8.60;;;25.70;99.90;;;;;;5071885;28;20507;-75
2022/01/07 06:43:06;;;;;;;31.77;7.72;;;25.70;99.90;;;;;;5071958;28;20373;-75
2022/01/07 06:45:34;;;;;;;35.13;7.45;;;25.70;99.90;;;;;;5072081;28;20010;-76
2022/01/07 06:48:01;;;;;;;27.40;8.90;;;25.60;99.90;;;;;;5072174;28;20035;-74
2022/01/07 06:50:28;;;;;;;32.17;6.90;;;25.60;99.90;;;;;;5071889;28;20059;-75
2022/01/07 06:52:55;;;;;;;35.05;7.53;;;25.60;99.90;;;;;;5071915;28;20036;-75
2022/01/07 06:55:23;;;;;;;42.53;7.70;;;25.60;99.90;;;;;;5071712;28;20024;-76
2022/01/07 06:57:50;;;;;;;40.67;7.30;;;25.60;99.90;;;;;;5071773;28;20074;-74
2022/01/07 07:00:18;;;;;;;37.40;7.10;;;25.50;99.90;;;;;;5071950;28;20069;-76
2022/01/07 07:02:45;;;;;;;33.72;7.55;;;25.50;99.90;;;;;;5071812;28;20477;-75
2022/01/07 07:05:12;;;;;;;32.30;6.78;;;25.50;99.90;;;;;;5071651;28;20426;-75
2022/01/07 07:07:39;;;;;;;32.45;8.00;;;25.60;99.90;;;;;;5071647;28;20381;-75
2022/01/07 07:10:07;;;;;;;33.72;6.88;;;25.60;99.90;;;;;;5070491;28;20024;-75
2022/01/07 07:12:34;;;;;;;40.95;7.68;;;25.60;99.90;;;;;;5071570;28;20113;-77
2022/01/07 07:15:02;;;;;;;35.50;8.45;;;25.60;99.90;;;;;;5071492;28;20584;-75
2022/01/07 07:17:29;;;;;;;32.00;7.20;;;25.60;99.90;;;;;;5071835;28;20115;-76
2022/01/07 07:19:56;;;;;;;36.67;7.82;;;25.60;99.90;;;;;;5071672;28;20473;-75
2022/01/07 07:22:24;;;;;;;29.45;6.65;;;25.60;99.90;;;;;;5071831;28;20029;-76
2022/01/07 07:24:51;;;;;;;29.83;6.60;;;25.60;99.90;;;;;;5072054;28;20025;-76
2022/01/07 07:27:19;;;;;;;28.60;6.95;;;25.50;99.90;;;;;;5075527;28;20025;-75
2022/01/07 07:29:46;;;;;;;31.42;8.48;;;25.50;99.90;;;;;;5074494;28;20412;-76
2022/01/07 07:32:21;;;;;;;33.00;7.75;;;25.50;99.90;;;;;;5075244;28;20473;-76
2022/01/07 07:35:01;;;;;;;37.10;6.90;;;25.50;99.90;;;;;;5075426;28;20086;-76
2022/01/07 07:37:29;;;;;;;33.40;6.88;;;25.50;99.90;;;;;;5075502;28;20012;-77
2022/01/07 07:39:56;;;;;;;31.30;7.03;;;25.50;99.90;;;;;;5075476;28;20099;-76
2022/01/07 07:42:24;;;;;;;42.85;8.60;;;25.50;99.90;;;;;;5075369;28;20024;-75
2022/01/07 07:44:51;;;;;;;37.80;8.00;;;25.50;99.90;;;;;;5075105;28;20024;-77
2022/01/07 07:47:19;;;;;;;33.88;7.75;;;25.40;99.90;;;;;;5075131;28;20461;-74
2022/01/07 07:49:46;;;;;;;39.90;8.75;;;25.30;99.90;;;;;;5075071;28;20465;-75
2022/01/07 07:52:15;;;;;;;32.40;6.90;;;25.20;99.90;;;;;;5074932;28;20035;-77
2022/01/07 07:54:42;;;;;;;32.72;6.40;;;25.10;99.90;;;;;;5075064;28;20050;-76
2022/01/07 07:57:09;;;;;;;36.33;6.57;;;25.10;99.90;;;;;;5074708;28;20082;-77
2022/01/07 07:59:37;;;;;;;38.58;8.55;;;25.10;99.90;;;;;;5074935;28;20028;-77
2022/01/07 08:02:05;;;;;;;37.45;6.45;;;25.10;99.90;;;;;;5075122;28;20489;-78
2022/01/07 08:04:33;;;;;;;44.65;7.43;;;24.90;99.90;;;;;;5075068;28;20017;-77
2022/01/07 08:07:00;;;;;;;30.55;7.90;;;24.90;99.90;;;;;;5073646;28;20029;-77
2022/01/07 08:09:30;;;;;;;42.95;7.60;;;25.00;99.90;;;;;;5074600;28;20024;-76
2022/01/07 08:12:05;;;;;;;38.28;8.00;;;24.90;99.90;;;;;;5074761;28;20024;-75
2022/01/07 08:17:17;;;;;;;39.60;8.15;;;24.90;99.90;;;;;;5074367;28;20427;-76
2022/01/07 08:19:45;;;;;;;29.67;6.25;;;24.80;99.90;;;;;;5074449;28;20489;-75
2022/01/07 08:22:12;;;;;;;32.72;7.28;;;24.80;99.90;;;;;;5074446;28;20025;-76
2022/01/07 08:24:40;;;;;;;36.13;7.70;;;24.70;99.90;;;;;;5074195;28;20020;-76
2022/01/07 08:27:07;;;;;;;32.70;8.38;;;24.70;99.90;;;;;;5074322;28;20022;-76
2022/01/07 08:29:37;;;;;;;33.45;6.18;;;24.70;99.90;;;;;;5074469;28;20024;-76
2022/01/07 08:34:53;;;;;;;44.08;8.25;;;24.80;99.90;;;;;;5074821;28;20071;-76
2022/01/07 08:37:25;;;;;;;33.72;7.60;;;24.60;99.90;;;;;;5073834;28;20012;-75
2022/01/07 08:39:54;;;;;;;38.30;7.68;;;24.60;99.90;;;;;;5074095;28;20050;-77
2022/01/07 08:42:25;;;;;;;34.97;6.93;;;24.60;99.90;;;;;;5074263;28;20017;-77
2022/01/07 08:44:54;;;;;;;39.90;8.07;;;24.60;99.90;;;;;;5067894;28;20103;-76
2022/01/07 08:47:25;;;;;;;36.33;6.97;;;24.60;99.90;;;;;;5072799;28;20024;-75
2022/01/07 08:49:53;;;;;;;48.75;8.35;;;24.60;99.90;;;;;;5073853;28;20024;-77
2022/01/07 08:52:21;;;;;;;38.08;8.15;;;24.60;99.90;;;;;;5073771;28;20025;-75
2022/01/07 08:54:50;;;;;;;33.03;8.00;;;24.50;99.90;;;;;;5072613;28;20027;-77
2022/01/07 08:57:19;;;;;;;40.15;8.38;;;24.50;99.90;;;;;;5073726;28;20414;-75
2022/01/07 08:59:48;;;;;;;30.77;7.82;;;24.50;99.90;;;;;;5073555;28;20020;-75
2022/01/07 09:02:16;;;;;;;33.28;7.03;;;24.50;99.90;;;;;;5073582;28;20091;-76
2022/01/07 09:04:43;;;;;;;31.70;7.20;;;24.50;99.90;;;;;;5073693;28;20103;-75
2022/01/07 09:07:10;;;;;;;35.30;7.25;;;24.50;99.90;;;;;;5072632;28;20106;-75
2022/01/07 09:09:38;;;;;;;31.83;6.90;;;24.40;99.90;;;;;;5073633;28;20017;-78
2022/01/07 09:12:06;;;;;;;36.15;6.95;;;24.40;99.90;;;;;;5073776;28;20027;-76
2022/01/07 09:14:33;;;;;;;34.10;8.10;;;24.40;99.90;;;;;;5073677;28;20024;-75
2022/01/07 09:17:01;;;;;;;37.35;8.02;;;24.40;99.90;;;;;;5073504;28;20036;-76
2022/01/07 09:19:28;;;;;;;40.10;8.15;;;24.40;99.90;;;;;;5073163;28;20051;-77
2022/01/07 09:21:58;;;;;;;38.15;9.30;;;24.40;99.90;;;;;;5073042;28;20016;-76
2022/01/07 09:24:27;;;;;;;40.83;8.05;;;24.40;99.90;;;;;;5073255;28;20025;-77
2022/01/07 09:26:55;;;;;;;34.25;6.38;;;24.40;99.90;;;;;;5071925;28;20025;-76
2022/01/07 09:29:27;;;;;;;40.38;7.63;;;24.40;99.90;;;;;;5073110;28;20111;-77
2022/01/07 09:31:54;;;;;;;;;;;24.40;99.90;;;;;;5073434;28;20052;-76
2022/01/07 09:34:21;;;;;;;36.35;7.68;;;24.40;99.90;;;;;;5073063;28;19908;-76
2022/01/07 09:36:49;;;;;;;31.83;7.78;;;24.30;99.90;;;;;;5073074;28;20025;-76
2022/01/07 09:39:16;;;;;;;38.25;8.15;;;24.30;99.90;;;;;;5073093;28;20052;-77
2022/01/07 09:41:44;;;;;;;32.15;7.47;;;24.30;99.90;;;;;;5073423;28;20024;-75
2022/01/07 09:44:12;;;;;;;38.95;8.10;;;24.30;99.90;;;;;;5073208;28;20063;-75
2022/01/07 09:46:44;;;;;;;32.70;8.27;;;24.30;99.90;;;;;;5073121;28;20190;-76
2022/01/07 09:49:11;;;;;;;34.97;7.43;;;24.30;99.90;;;;;;5070985;28;20048;-77
2022/01/07 09:51:40;;;;;;;32.50;7.60;;;24.30;99.90;;;;;;5072948;28;20100;-77
2022/01/07 09:54:08;;;;;;;39.65;6.85;;;24.30;99.90;;;;;;5072581;28;20112;-76
2022/01/07 09:56:36;;;;;;;32.13;7.55;;;24.30;99.90;;;;;;5071241;28;20020;-76
2022/01/07 09:59:05;;;;;;;29.60;6.68;;;24.30;99.90;;;;;;5072286;28;20052;-75
2022/01/07 10:02:10;;;;;;;32.60;7.68;;;24.30;99.90;;;;;;5072532;28;20020;-77
2022/01/07 10:04:42;;;;;;;31.98;6.82;;;24.30;99.90;;;;;;5072649;28;20017;-76
2022/01/07 10:07:21;;;;;;;31.30;6.75;;;24.30;99.90;;;;;;5072728;28;20024;-75
2022/01/07 10:10:09;;;;;;;31.55;8.15;;;24.30;99.90;;;;;;5072626;28;20438;-75
2022/01/07 10:13:03;;;;;;;30.65;6.38;;;24.20;99.90;;;;;;5072367;28;20047;-75
2022/01/07 10:15:32;;;;;;;39.25;8.40;;;24.20;99.90;;;;;;5072174;28;20021;-76
2022/01/07 10:18:07;;;;;;;39.75;8.82;;;24.20;99.90;;;;;;5072131;28;20043;-76
2022/01/07 10:20:46;;;;;;;34.53;7.53;;;24.20;99.90;;;;;;5072379;28;20021;-76
2022/01/07 10:23:24;;;;;;;32.17;6.15;;;24.20;99.90;;;;;;5072484;28;20028;-76
2022/01/07 10:25:57;;;;;;;31.60;6.93;;;24.20;99.90;;;;;;5072282;28;20042;-76
2022/01/07 10:28:35;;;;;;;31.27;7.20;;;24.10;99.90;;;;;;5071420;28;20120;-76
2022/01/07 10:31:03;;;;;;;32.80;7.20;;;24.10;99.90;;;;;;5072497;28;20040;-75
2022/01/07 10:33:35;;;;;;;37.00;7.80;;;24.10;99.90;;;;;;5072405;28;20025;-75
2022/01/07 10:36:08;;;;;;;36.00;7.80;;;24.10;99.90;;;;;;5072121;28;20028;-75
2022/01/07 10:38:45;;;;;;;36.05;8.25;;;24.20;99.90;;;;;;5071715;28;20138;-76
2022/01/07 10:41:13;;;;;;;39.58;8.60;;;24.10;99.90;;;;;;5072266;28;20023;-75
2022/01/07 10:43:41;;;;;;;35.72;7.43;;;24.10;99.90;;;;;;5072388;28;20099;-74
2022/01/07 10:46:11;;;;;;;34.05;7.03;;;24.10;99.90;;;;;;5071741;28;20017;-76
2022/01/07 10:48:59;;;;;;;32.92;8.32;;;24.10;99.90;;;;;;5071658;28;20024;-75
2022/01/07 10:51:32;;;;;;;37.95;9.73;;;24.00;99.90;;;;;;5072113;28;20012;-76
2022/01/07 10:54:05;;;;;;;48.78;6.93;;;24.10;99.90;;;;;;5070764;28;20039;-75
2022/01/07 10:56:39;;;;;;;41.40;8.43;;;24.00;99.90;;;;;;5071883;28;20027;-74
2022/01/07 10:59:14;;;;;;;33.95;7.60;;;24.00;99.90;;;;;;5071741;28;20447;-76
2022/01/07 11:01:44;;;;;;;33.58;7.68;;;24.00;99.90;;;;;;5075438;28;20020;-76
2022/01/07 11:04:19;;;;;;;47.13;9.20;;;24.00;99.90;;;;;;5076012;28;20032;-75
2022/01/07 11:06:49;;;;;;;45.10;9.88;;;24.00;99.90;;;;;;5076132;28;20028;-76
2022/01/07 11:09:17;;;;;;;39.28;8.38;;;24.00;99.90;;;;;;5075838;28;20059;-76
2022/01/07 11:11:56;;;;;;;37.85;8.80;;;24.00;99.90;;;;;;5076064;28;20553;-75
2022/01/07 11:14:29;;;;;;;37.97;7.57;;;24.00;99.90;;;;;;5075848;28;20032;-75
2022/01/07 11:16:58;;;;;;;33.33;7.43;;;24.00;99.90;;;;;;5075738;28;20350;-76
2022/01/07 11:19:35;;;;;;;40.97;8.38;;;23.90;99.90;;;;;;5074458;28;20093;-75
2022/01/07 11:22:04;;;;;;;43.42;8.85;;;23.90;99.90;;;;;;5075884;28;20082;-76
2022/01/07 11:24:36;;;;;;;34.25;8.13;;;24.00;99.90;;;;;;5075736;28;20028;-76
2022/01/07 11:27:26;;;;;;;40.08;8.25;;;23.90;99.90;;;;;;5075607;28;20491;-76
2022/01/07 11:30:09;;;;;;;37.90;7.50;;;23.90;99.90;;;;;;5075526;28;20059;-76
2022/01/07 11:32:41;;;;;;;31.77;7.70;;;23.90;99.90;;;;;;5075431;28;20036;-76
2022/01/07 11:35:21;;;;;;;34.08;7.43;;;23.90;99.90;;;;;;5075534;28;20369;-76
2022/01/07 11:37:50;;;;;;;41.72;7.50;;;23.90;99.90;;;;;;5075642;28;20431;-75
2022/01/07 11:40:31;;;;;;;32.20;8.52;;;23.90;99.90;;;;;;5075447;28;20032;-76
2022/01/07 11:43:04;;;;;;;39.05;9.45;;;23.90;99.90;;;;;;5075404;28;20408;-76
2022/01/07 11:45:35;;;;;;;36.05;7.50;;;23.90;99.90;;;;;;5073835;28;20032;-76
2022/01/07 11:48:13;;;;;;;38.10;6.65;;;23.90;99.90;;;;;;5075282;28;20469;-76
2022/01/07 11:51:10;;;;;;;31.85;7.22;;;23.90;99.90;;;;;;5075251;28;20024;-76
2022/01/07 11:53:43;;;;;;;35.40;7.70;;;23.90;99.90;;;;;;5075150;28;20069;-75
2022/01/07 11:56:13;;;;;;;40.92;8.57;;;23.90;99.90;;;;;;5075091;28;20456;-77
2022/01/07 11:58:51;;;;;;;37.92;8.10;;;23.90;99.90;;;;;;5075124;28;20028;-75
2022/01/07 12:01:30;;;;;;;31.55;7.22;;;23.80;99.90;;;;;;5074058;28;20126;-76
2022/01/07 12:04:00;;;;;;;40.33;9.15;;;23.80;99.90;;;;;;5074856;28;20032;-76
2022/01/07 12:06:27;;;;;;;37.63;8.93;;;23.80;99.90;;;;;;5074964;28;20423;-76
2022/01/07 12:09:09;;;;;;;38.83;7.78;;;23.80;99.90;;;;;;5075018;28;20023;-75
2022/01/07 12:11:54;;;;;;;32.88;7.35;;;23.80;99.90;;;;;;5072727;28;20037;-76
2022/01/07 12:14:45;;;;;;;30.70;7.05;;;23.80;99.90;;;;;;5073524;28;20051;-75
2022/01/07 12:17:18;;;;;;;40.17;8.68;;;23.80;99.90;;;;;;5074630;28;20025;-77
2022/01/07 12:19:48;;;;;;;34.08;8.13;;;23.80;99.90;;;;;;5074489;28;20039;-75
2022/01/07 12:22:17;;;;;;;39.63;7.32;;;23.90;99.90;;;;;;5074655;28;20052;-76
2022/01/07 12:24:45;;;;;;;34.42;8.10;;;23.90;99.90;;;;;;5074725;28;20027;-75
2022/01/07 12:27:24;;;;;;;37.75;10.27;;;23.90;99.90;;;;;;5074445;28;20020;-75
2022/01/07 12:29:58;;;;;;;43.33;8.10;;;23.90;99.90;;;;;;5074394;28;20048;-76
2022/01/07 12:32:34;;;;;;;30.77;7.85;;;23.90;99.90;;;;;;5074401;28;20111;-76
2022/01/07 12:35:04;;;;;;;44.95;7.80;;;23.90;99.90;;;;;;5074543;28;20435;-76
2022/01/07 12:37:31;;;;;;;37.40;7.15;;;23.90;99.90;;;;;;5074515;28;20029;-76
2022/01/07 12:40:05;;;;;;;30.30;7.63;;;23.80;99.90;;;;;;5074390;28;20027;-76
2022/01/07 12:42:40;;;;;;;37.42;7.43;;;23.90;99.90;;;;;;5074067;28;20070;-76
2022/01/07 12:45:12;;;;;;;31.98;7.28;;;23.90;99.90;;;;;;5074187;28;20423;-77
2022/01/07 12:47:39;;;;;;;;;;;23.90;99.90;;;;;;5074272;28;20052;-77
2022/01/07 12:50:07;;;;;;;36.03;7.65;;;23.90;99.90;;;;;;5074337;28;19913;-78
2022/01/07 12:52:42;;;;;;;28.10;6.22;;;23.90;99.90;;;;;;5074047;28;20074;-76
2022/01/07 12:55:18;;;;;;;43.33;9.75;;;23.90;99.90;;;;;;5074183;28;20040;-78